sensor_id;sensor_type;location;lat;lon;timestamp;P1;durP1;ratioP1;P2;durP2;ratioP2
7969;SDS011;4030;52.362;9.206;2022-10-16T00:02:00;0.80;;;0.80;;
7969;SDS011;4030;52.362;9.206;2022-10-16T00:04:26;0.88;;;0.73;;
7969;SDS011;4030;52.362;9.206;2022-10-16T00:06:52;0.70;;;0.63;;
7969;SDS011;4030;52.362;9.206;2022-10-16T00:09:19;0.82;;;0.60;;
7969;SDS011;4030;52.362;9.206;2022-10-16T00:11:45;0.60;;;0.60;;
7969;SDS011;4030;52.362;9.206;2022-10-16T00:14:12;0.85;;;0.50;;
7969;SDS011;4030;52.362;9.206;2022-10-16T00:16:39;0.98;;;0.70;;
7969;SDS011;4030;52.362;9.206;2022-10-16T00:19:06;0.82;;;0.75;;
7969;SDS011;4030;52.362;9.206;2022-10-16T00:21:32;0.60;;;0.60;;
7969;SDS011;4030;52.362;9.206;2022-10-16T00:24:00;0.70;;;0.60;;
7969;SDS011;4030;52.362;9.206;2022-10-16T00:26:32;0.80;;;0.60;;
7969;SDS011;4030;52.362;9.206;2022-10-16T00:29:00;0.70;;;0.70;;
7969;SDS011;4030;52.362;9.206;2022-10-16T00:31:26;0.60;;;0.60;;
7969;SDS011;4030;52.362;9.206;2022-10-16T00:33:52;1.17;;;0.80;;
7969;SDS011;4030;52.362;9.206;2022-10-16T00:36:20;0.80;;;0.80;;
7969;SDS011;4030;52.362;9.206;2022-10-16T00:38:51;1.15;;;0.70;;
7969;SDS011;4030;52.362;9.206;2022-10-16T00:41:24;1.30;;;0.70;;
7969;SDS011;4030;52.362;9.206;2022-10-16T00:43:53;1.00;;;0.73;;
7969;SDS011;4030;52.362;9.206;2022-10-16T00:46:28;1.10;;;0.77;;
7969;SDS011;4030;52.362;9.206;2022-10-16T00:49:06;0.82;;;0.73;;
7969;SDS011;4030;52.362;9.206;2022-10-16T00:51:49;0.90;;;0.80;;
7969;SDS011;4030;52.362;9.206;2022-10-16T00:54:21;0.90;;;0.68;;
7969;SDS011;4030;52.362;9.206;2022-10-16T00:56:51;1.02;;;0.80;;
7969;SDS011;4030;52.362;9.206;2022-10-16T00:59:20;1.15;;;0.70;;
7969;SDS011;4030;52.362;9.206;2022-10-16T01:01:52;1.23;;;1.02;;
7969;SDS011;4030;52.362;9.206;2022-10-16T01:04:18;1.05;;;0.90;;
7969;SDS011;4030;52.362;9.206;2022-10-16T01:13:05;2.13;;;0.98;;
7969;SDS011;4030;52.362;9.206;2022-10-16T01:15:37;0.85;;;0.80;;
7969;SDS011;4030;52.362;9.206;2022-10-16T01:18:17;1.50;;;0.80;;
7969;SDS011;4030;52.362;9.206;2022-10-16T01:20:59;1.63;;;1.00;;
7969;SDS011;4030;52.362;9.206;2022-10-16T01:23:48;1.63;;;0.90;;
7969;SDS011;4030;52.362;9.206;2022-10-16T01:26:36;1.15;;;0.80;;
7969;SDS011;4030;52.362;9.206;2022-10-16T01:31:56;1.83;;;1.00;;
7969;SDS011;4030;52.362;9.206;2022-10-16T01:34:33;1.45;;;0.98;;
7969;SDS011;4030;52.362;9.206;2022-10-16T01:37:09;1.10;;;0.95;;
7969;SDS011;4030;52.362;9.206;2022-10-16T01:39:42;1.65;;;1.00;;
7969;SDS011;4030;52.362;9.206;2022-10-16T01:42:16;2.03;;;1.00;;
7969;SDS011;4030;52.362;9.206;2022-10-16T01:44:47;1.23;;;1.00;;
7969;SDS011;4030;52.362;9.206;2022-10-16T01:47:15;1.80;;;1.00;;
7969;SDS011;4030;52.362;9.206;2022-10-16T01:49:44;1.20;;;0.95;;
7969;SDS011;4030;52.362;9.206;2022-10-16T01:52:12;1.33;;;1.00;;
7969;SDS011;4030;52.362;9.206;2022-10-16T01:54:43;1.58;;;1.00;;
7969;SDS011;4030;52.362;9.206;2022-10-16T01:57:13;1.65;;;1.02;;
7969;SDS011;4030;52.362;9.206;2022-10-16T01:59:42;3.38;;;1.00;;
7969;SDS011;4030;52.362;9.206;2022-10-16T02:02:14;1.92;;;1.20;;
7969;SDS011;4030;52.362;9.206;2022-10-16T02:04:44;1.20;;;1.00;;
7969;SDS011;4030;52.362;9.206;2022-10-16T02:07:17;2.67;;;0.98;;
7969;SDS011;4030;52.362;9.206;2022-10-16T02:09:43;1.13;;;0.90;;
7969;SDS011;4030;52.362;9.206;2022-10-16T02:14:53;1.77;;;1.23;;
7969;SDS011;4030;52.362;9.206;2022-10-16T02:17:20;1.90;;;1.02;;
7969;SDS011;4030;52.362;9.206;2022-10-16T02:19:46;1.75;;;1.10;;
7969;SDS011;4030;52.362;9.206;2022-10-16T02:22:47;1.48;;;1.00;;
7969;SDS011;4030;52.362;9.206;2022-10-16T02:25:19;1.30;;;1.00;;
7969;SDS011;4030;52.362;9.206;2022-10-16T02:27:57;1.10;;;0.80;;
7969;SDS011;4030;52.362;9.206;2022-10-16T02:30:45;1.70;;;1.10;;
7969;SDS011;4030;52.362;9.206;2022-10-16T02:33:27;0.80;;;0.80;;
7969;SDS011;4030;52.362;9.206;2022-10-16T02:35:54;1.77;;;1.10;;
7969;SDS011;4030;52.362;9.206;2022-10-16T02:38:21;1.92;;;1.05;;
7969;SDS011;4030;52.362;9.206;2022-10-16T02:40:49;3.05;;;1.20;;
7969;SDS011;4030;52.362;9.206;2022-10-16T02:43:15;1.02;;;0.77;;
7969;SDS011;4030;52.362;9.206;2022-10-16T02:45:42;2.08;;;1.00;;
7969;SDS011;4030;52.362;9.206;2022-10-16T02:48:08;1.83;;;1.05;;
7969;SDS011;4030;52.362;9.206;2022-10-16T02:50:33;1.58;;;1.08;;
7969;SDS011;4030;52.362;9.206;2022-10-16T02:52:59;1.75;;;1.00;;
7969;SDS011;4030;52.362;9.206;2022-10-16T02:55:25;1.80;;;1.05;;
7969;SDS011;4030;52.362;9.206;2022-10-16T02:57:52;1.73;;;1.05;;
7969;SDS011;4030;52.362;9.206;2022-10-16T03:00:19;0.98;;;0.88;;
7969;SDS011;4030;52.362;9.206;2022-10-16T03:02:45;2.17;;;1.10;;
7969;SDS011;4030;52.362;9.206;2022-10-16T03:05:12;1.70;;;1.10;;
7969;SDS011;4030;52.362;9.206;2022-10-16T03:07:38;1.63;;;0.98;;
7969;SDS011;4030;52.362;9.206;2022-10-16T03:10:04;1.38;;;1.10;;
7969;SDS011;4030;52.362;9.206;2022-10-16T03:12:31;1.67;;;1.10;;
7969;SDS011;4030;52.362;9.206;2022-10-16T03:14:57;2.53;;;1.15;;
7969;SDS011;4030;52.362;9.206;2022-10-16T03:17:23;1.50;;;1.20;;
7969;SDS011;4030;52.362;9.206;2022-10-16T03:19:50;1.67;;;1.20;;
7969;SDS011;4030;52.362;9.206;2022-10-16T03:22:16;1.23;;;1.00;;
7969;SDS011;4030;52.362;9.206;2022-10-16T03:24:42;1.65;;;1.00;;
7969;SDS011;4030;52.362;9.206;2022-10-16T03:27:08;1.05;;;0.95;;
7969;SDS011;4030;52.362;9.206;2022-10-16T03:29:34;1.40;;;1.10;;
7969;SDS011;4030;52.362;9.206;2022-10-16T03:32:00;1.67;;;1.10;;
7969;SDS011;4030;52.362;9.206;2022-10-16T03:34:26;2.00;;;1.10;;
7969;SDS011;4030;52.362;9.206;2022-10-16T03:36:52;1.83;;;0.88;;
7969;SDS011;4030;52.362;9.206;2022-10-16T03:39:18;2.42;;;0.93;;
7969;SDS011;4030;52.362;9.206;2022-10-16T03:41:44;1.23;;;0.98;;
7969;SDS011;4030;52.362;9.206;2022-10-16T03:44:11;1.38;;;1.00;;
7969;SDS011;4030;52.362;9.206;2022-10-16T03:46:37;1.52;;;0.98;;
7969;SDS011;4030;52.362;9.206;2022-10-16T03:49:03;1.42;;;1.10;;
7969;SDS011;4030;52.362;9.206;2022-10-16T03:51:29;1.75;;;1.10;;
7969;SDS011;4030;52.362;9.206;2022-10-16T03:53:55;3.53;;;1.27;;
7969;SDS011;4030;52.362;9.206;2022-10-16T03:56:21;1.10;;;1.00;;
7969;SDS011;4030;52.362;9.206;2022-10-16T03:58:47;1.38;;;1.00;;
7969;SDS011;4030;52.362;9.206;2022-10-16T04:01:13;2.10;;;1.10;;
7969;SDS011;4030;52.362;9.206;2022-10-16T04:03:39;1.55;;;0.90;;
7969;SDS011;4030;52.362;9.206;2022-10-16T04:06:05;1.60;;;1.13;;
7969;SDS011;4030;52.362;9.206;2022-10-16T04:08:31;1.48;;;0.90;;
7969;SDS011;4030;52.362;9.206;2022-10-16T04:10:59;1.67;;;1.10;;
7969;SDS011;4030;52.362;9.206;2022-10-16T04:13:26;1.83;;;1.15;;
7969;SDS011;4030;52.362;9.206;2022-10-16T04:15:51;1.35;;;1.08;;
7969;SDS011;4030;52.362;9.206;2022-10-16T04:18:17;2.03;;;1.10;;
7969;SDS011;4030;52.362;9.206;2022-10-16T04:20:43;1.25;;;0.90;;
7969;SDS011;4030;52.362;9.206;2022-10-16T04:23:09;2.28;;;1.00;;
7969;SDS011;4030;52.362;9.206;2022-10-16T04:25:35;1.55;;;0.80;;
7969;SDS011;4030;52.362;9.206;2022-10-16T04:28:01;1.00;;;0.90;;
7969;SDS011;4030;52.362;9.206;2022-10-16T04:30:27;1.65;;;1.10;;
7969;SDS011;4030;52.362;9.206;2022-10-16T04:32:52;1.13;;;0.88;;
7969;SDS011;4030;52.362;9.206;2022-10-16T04:35:18;1.00;;;0.90;;
7969;SDS011;4030;52.362;9.206;2022-10-16T04:37:46;3.50;;;1.13;;
7969;SDS011;4030;52.362;9.206;2022-10-16T04:40:12;1.45;;;0.85;;
7969;SDS011;4030;52.362;9.206;2022-10-16T04:42:38;2.78;;;1.10;;
7969;SDS011;4030;52.362;9.206;2022-10-16T04:45:05;1.85;;;1.00;;
7969;SDS011;4030;52.362;9.206;2022-10-16T04:47:33;1.50;;;0.95;;
7969;SDS011;4030;52.362;9.206;2022-10-16T04:49:58;1.65;;;1.10;;
7969;SDS011;4030;52.362;9.206;2022-10-16T04:52:26;1.42;;;0.90;;
7969;SDS011;4030;52.362;9.206;2022-10-16T04:54:51;1.48;;;1.00;;
7969;SDS011;4030;52.362;9.206;2022-10-16T04:57:18;1.70;;;1.10;;
7969;SDS011;4030;52.362;9.206;2022-10-16T04:59:44;1.27;;;0.90;;
7969;SDS011;4030;52.362;9.206;2022-10-16T05:02:10;2.63;;;0.85;;
7969;SDS011;4030;52.362;9.206;2022-10-16T05:04:37;1.20;;;0.90;;
7969;SDS011;4030;52.362;9.206;2022-10-16T05:07:03;2.08;;;1.00;;
7969;SDS011;4030;52.362;9.206;2022-10-16T05:09:29;1.65;;;0.90;;
7969;SDS011;4030;52.362;9.206;2022-10-16T05:11:55;0.80;;;0.80;;
7969;SDS011;4030;52.362;9.206;2022-10-16T05:14:21;1.27;;;1.00;;
7969;SDS011;4030;52.362;9.206;2022-10-16T05:16:47;1.08;;;0.90;;
7969;SDS011;4030;52.362;9.206;2022-10-16T05:19:13;1.00;;;0.80;;
7969;SDS011;4030;52.362;9.206;2022-10-16T05:21:40;1.85;;;0.98;;
7969;SDS011;4030;52.362;9.206;2022-10-16T05:24:06;1.88;;;1.00;;
7969;SDS011;4030;52.362;9.206;2022-10-16T05:26:32;1.60;;;1.00;;
7969;SDS011;4030;52.362;9.206;2022-10-16T05:28:57;1.05;;;0.80;;
7969;SDS011;4030;52.362;9.206;2022-10-16T05:31:23;1.63;;;1.00;;
7969;SDS011;4030;52.362;9.206;2022-10-16T05:33:49;0.80;;;0.80;;
7969;SDS011;4030;52.362;9.206;2022-10-16T05:36:15;1.88;;;0.93;;
7969;SDS011;4030;52.362;9.206;2022-10-16T05:38:43;1.80;;;0.93;;
7969;SDS011;4030;52.362;9.206;2022-10-16T05:41:09;1.30;;;0.70;;
7969;SDS011;4030;52.362;9.206;2022-10-16T05:43:34;1.88;;;0.95;;
7969;SDS011;4030;52.362;9.206;2022-10-16T05:46:01;1.60;;;0.95;;
7969;SDS011;4030;52.362;9.206;2022-10-16T05:48:30;0.80;;;0.80;;
7969;SDS011;4030;52.362;9.206;2022-10-16T05:51:02;1.77;;;1.00;;
7969;SDS011;4030;52.362;9.206;2022-10-16T05:53:33;2.47;;;1.08;;
7969;SDS011;4030;52.362;9.206;2022-10-16T05:56:00;0.80;;;0.80;;
7969;SDS011;4030;52.362;9.206;2022-10-16T05:58:31;1.60;;;1.00;;
7969;SDS011;4030;52.362;9.206;2022-10-16T06:01:10;1.60;;;0.80;;
7969;SDS011;4030;52.362;9.206;2022-10-16T06:03:38;1.77;;;0.93;;
7969;SDS011;4030;52.362;9.206;2022-10-16T06:06:24;1.08;;;0.90;;
7969;SDS011;4030;52.362;9.206;2022-10-16T06:08:52;1.10;;;0.70;;
7969;SDS011;4030;52.362;9.206;2022-10-16T06:11:23;2.40;;;0.90;;
7969;SDS011;4030;52.362;9.206;2022-10-16T06:13:52;1.08;;;0.80;;
7969;SDS011;4030;52.362;9.206;2022-10-16T06:16:21;2.22;;;0.90;;
7969;SDS011;4030;52.362;9.206;2022-10-16T06:18:48;1.80;;;1.00;;
7969;SDS011;4030;52.362;9.206;2022-10-16T06:21:17;2.42;;;1.08;;
7969;SDS011;4030;52.362;9.206;2022-10-16T06:23:46;1.73;;;0.90;;
7969;SDS011;4030;52.362;9.206;2022-10-16T06:26:13;1.77;;;0.93;;
7969;SDS011;4030;52.362;9.206;2022-10-16T06:28:41;1.90;;;1.00;;
7969;SDS011;4030;52.362;9.206;2022-10-16T06:31:08;0.98;;;0.88;;
7969;SDS011;4030;52.362;9.206;2022-10-16T06:33:35;1.13;;;0.90;;
7969;SDS011;4030;52.362;9.206;2022-10-16T06:36:02;1.48;;;0.90;;
7969;SDS011;4030;52.362;9.206;2022-10-16T06:38:37;0.82;;;0.70;;
7969;SDS011;4030;52.362;9.206;2022-10-16T06:41:04;1.40;;;0.80;;
7969;SDS011;4030;52.362;9.206;2022-10-16T06:43:31;2.22;;;1.00;;
7969;SDS011;4030;52.362;9.206;2022-10-16T06:46:00;1.40;;;0.93;;
7969;SDS011;4030;52.362;9.206;2022-10-16T06:48:27;0.98;;;0.80;;
7969;SDS011;4030;52.362;9.206;2022-10-16T06:50:57;1.10;;;0.80;;
7969;SDS011;4030;52.362;9.206;2022-10-16T06:53:24;1.40;;;0.70;;
7969;SDS011;4030;52.362;9.206;2022-10-16T06:55:52;0.73;;;0.70;;
7969;SDS011;4030;52.362;9.206;2022-10-16T06:58:18;1.20;;;0.80;;
7969;SDS011;4030;52.362;9.206;2022-10-16T07:00:44;1.65;;;0.75;;
7969;SDS011;4030;52.362;9.206;2022-10-16T07:03:10;1.05;;;0.70;;
7969;SDS011;4030;52.362;9.206;2022-10-16T07:05:42;1.85;;;0.88;;
7969;SDS011;4030;52.362;9.206;2022-10-16T07:08:08;1.85;;;0.90;;
7969;SDS011;4030;52.362;9.206;2022-10-16T07:10:34;1.30;;;0.70;;
7969;SDS011;4030;52.362;9.206;2022-10-16T07:13:00;1.00;;;0.70;;
7969;SDS011;4030;52.362;9.206;2022-10-16T07:15:26;0.70;;;0.70;;
7969;SDS011;4030;52.362;9.206;2022-10-16T07:17:53;1.75;;;0.75;;
7969;SDS011;4030;52.362;9.206;2022-10-16T07:20:19;0.80;;;0.63;;
7969;SDS011;4030;52.362;9.206;2022-10-16T07:22:44;1.00;;;0.73;;
7969;SDS011;4030;52.362;9.206;2022-10-16T07:25:11;1.05;;;0.77;;
7969;SDS011;4030;52.362;9.206;2022-10-16T07:27:37;0.93;;;0.70;;
7969;SDS011;4030;52.362;9.206;2022-10-16T07:30:03;1.02;;;0.70;;
7969;SDS011;4030;52.362;9.206;2022-10-16T07:32:29;0.85;;;0.77;;
7969;SDS011;4030;52.362;9.206;2022-10-16T07:34:56;1.10;;;0.70;;
7969;SDS011;4030;52.362;9.206;2022-10-16T07:37:22;1.25;;;0.70;;
7969;SDS011;4030;52.362;9.206;2022-10-16T07:39:49;2.35;;;0.70;;
7969;SDS011;4030;52.362;9.206;2022-10-16T07:42:15;1.95;;;0.68;;
7969;SDS011;4030;52.362;9.206;2022-10-16T07:44:40;0.70;;;0.70;;
7969;SDS011;4030;52.362;9.206;2022-10-16T07:47:06;1.38;;;0.68;;
7969;SDS011;4030;52.362;9.206;2022-10-16T07:49:32;1.30;;;0.70;;
7969;SDS011;4030;52.362;9.206;2022-10-16T07:51:58;0.73;;;0.70;;
7969;SDS011;4030;52.362;9.206;2022-10-16T07:54:23;2.00;;;0.60;;
7969;SDS011;4030;52.362;9.206;2022-10-16T07:56:49;1.10;;;0.85;;
7969;SDS011;4030;52.362;9.206;2022-10-16T07:59:15;0.82;;;0.60;;
7969;SDS011;4030;52.362;9.206;2022-10-16T08:01:41;0.70;;;0.70;;
7969;SDS011;4030;52.362;9.206;2022-10-16T08:04:08;0.68;;;0.68;;
7969;SDS011;4030;52.362;9.206;2022-10-16T08:06:35;1.63;;;0.80;;
7969;SDS011;4030;52.362;9.206;2022-10-16T08:09:03;1.83;;;0.70;;
7969;SDS011;4030;52.362;9.206;2022-10-16T08:11:30;4.30;;;0.80;;
7969;SDS011;4030;52.362;9.206;2022-10-16T08:13:56;1.08;;;0.80;;
7969;SDS011;4030;52.362;9.206;2022-10-16T08:16:22;3.03;;;0.95;;
7969;SDS011;4030;52.362;9.206;2022-10-16T08:18:48;0.90;;;0.70;;
7969;SDS011;4030;52.362;9.206;2022-10-16T08:21:17;0.70;;;0.70;;
7969;SDS011;4030;52.362;9.206;2022-10-16T08:23:45;1.58;;;0.70;;
7969;SDS011;4030;52.362;9.206;2022-10-16T08:26:12;1.50;;;0.70;;
7969;SDS011;4030;52.362;9.206;2022-10-16T08:28:37;1.83;;;0.90;;
7969;SDS011;4030;52.362;9.206;2022-10-16T08:31:15;1.98;;;0.80;;
7969;SDS011;4030;52.362;9.206;2022-10-16T08:33:42;1.00;;;0.70;;
7969;SDS011;4030;52.362;9.206;2022-10-16T08:36:09;0.80;;;0.70;;
7969;SDS011;4030;52.362;9.206;2022-10-16T08:38:36;1.77;;;0.60;;
7969;SDS011;4030;52.362;9.206;2022-10-16T08:41:21;1.60;;;0.60;;
7969;SDS011;4030;52.362;9.206;2022-10-16T08:44:35;1.10;;;0.70;;
7969;SDS011;4030;52.362;9.206;2022-10-16T08:50:21;0.77;;;0.73;;
7969;SDS011;4030;52.362;9.206;2022-10-16T08:52:55;0.55;;;0.50;;
7969;SDS011;4030;52.362;9.206;2022-10-16T08:55:28;0.88;;;0.70;;
7969;SDS011;4030;52.362;9.206;2022-10-16T08:57:59;0.60;;;0.60;;
7969;SDS011;4030;52.362;9.206;2022-10-16T09:00:26;1.23;;;0.57;;
7969;SDS011;4030;52.362;9.206;2022-10-16T09:08:25;0.73;;;0.57;;
7969;SDS011;4030;52.362;9.206;2022-10-16T09:11:06;2.15;;;0.70;;
7969;SDS011;4030;52.362;9.206;2022-10-16T09:14:28;0.70;;;0.60;;
7969;SDS011;4030;52.362;9.206;2022-10-16T09:25:29;1.02;;;0.60;;
7969;SDS011;4030;52.362;9.206;2022-10-16T09:27:56;0.85;;;0.60;;
7969;SDS011;4030;52.362;9.206;2022-10-16T09:30:22;0.68;;;0.57;;
7969;SDS011;4030;52.362;9.206;2022-10-16T09:32:52;1.55;;;0.50;;
7969;SDS011;4030;52.362;9.206;2022-10-16T09:35:20;0.50;;;0.50;;
7969;SDS011;4030;52.362;9.206;2022-10-16T09:37:56;0.85;;;0.50;;
7969;SDS011;4030;52.362;9.206;2022-10-16T09:49:04;1.50;;;0.60;;
7969;SDS011;4030;52.362;9.206;2022-10-16T09:51:47;0.88;;;0.40;;
7969;SDS011;4030;52.362;9.206;2022-10-16T09:54:15;1.05;;;0.57;;
7969;SDS011;4030;52.362;9.206;2022-10-16T09:56:46;0.88;;;0.60;;
7969;SDS011;4030;52.362;9.206;2022-10-16T09:59:18;1.25;;;0.60;;
7969;SDS011;4030;52.362;9.206;2022-10-16T10:01:49;0.90;;;0.68;;
7969;SDS011;4030;52.362;9.206;2022-10-16T10:04:20;1.00;;;0.70;;
7969;SDS011;4030;52.362;9.206;2022-10-16T10:06:49;1.17;;;0.60;;
7969;SDS011;4030;52.362;9.206;2022-10-16T10:09:24;1.13;;;0.55;;
7969;SDS011;4030;52.362;9.206;2022-10-16T10:12:03;1.23;;;0.57;;
7969;SDS011;4030;52.362;9.206;2022-10-16T10:14:47;1.38;;;0.68;;
7969;SDS011;4030;52.362;9.206;2022-10-16T10:17:19;0.98;;;0.70;;
7969;SDS011;4030;52.362;9.206;2022-10-16T10:19:48;1.55;;;0.70;;
7969;SDS011;4030;52.362;9.206;2022-10-16T10:22:29;1.40;;;0.75;;
7969;SDS011;4030;52.362;9.206;2022-10-16T10:27:55;1.13;;;0.60;;
7969;SDS011;4030;52.362;9.206;2022-10-16T10:36:35;1.27;;;0.60;;
7969;SDS011;4030;52.362;9.206;2022-10-16T10:39:06;1.75;;;0.60;;
7969;SDS011;4030;52.362;9.206;2022-10-16T10:50:25;2.72;;;0.90;;
7969;SDS011;4030;52.362;9.206;2022-10-16T10:53:09;1.27;;;0.60;;
7969;SDS011;4030;52.362;9.206;2022-10-16T11:01:55;2.10;;;0.80;;
7969;SDS011;4030;52.362;9.206;2022-10-16T11:10:45;1.05;;;0.60;;
7969;SDS011;4030;52.362;9.206;2022-10-16T11:13:24;1.70;;;0.70;;
7969;SDS011;4030;52.362;9.206;2022-10-16T11:16:13;1.73;;;0.70;;
7969;SDS011;4030;52.362;9.206;2022-10-16T11:18:50;1.75;;;0.65;;
7969;SDS011;4030;52.362;9.206;2022-10-16T11:21:24;1.38;;;0.68;;
7969;SDS011;4030;52.362;9.206;2022-10-16T11:23:59;1.30;;;0.70;;
7969;SDS011;4030;52.362;9.206;2022-10-16T11:26:32;2.38;;;0.70;;
7969;SDS011;4030;52.362;9.206;2022-10-16T11:29:01;1.23;;;0.60;;
7969;SDS011;4030;52.362;9.206;2022-10-16T11:31:37;1.35;;;0.60;;
7969;SDS011;4030;52.362;9.206;2022-10-16T11:37:05;1.02;;;0.60;;
7969;SDS011;4030;52.362;9.206;2022-10-16T11:39:38;2.60;;;0.80;;
7969;SDS011;4030;52.362;9.206;2022-10-16T11:42:10;2.83;;;0.70;;
7969;SDS011;4030;52.362;9.206;2022-10-16T11:44:51;1.48;;;0.63;;
7969;SDS011;4030;52.362;9.206;2022-10-16T11:47:24;2.53;;;0.70;;
7969;SDS011;4030;52.362;9.206;2022-10-16T11:56:37;5.63;;;1.00;;
7969;SDS011;4030;52.362;9.206;2022-10-16T11:59:17;3.17;;;0.93;;
7969;SDS011;4030;52.362;9.206;2022-10-16T12:01:52;4.43;;;1.08;;
7969;SDS011;4030;52.362;9.206;2022-10-16T12:04:43;4.15;;;1.02;;
7969;SDS011;4030;52.362;9.206;2022-10-16T12:07:24;2.92;;;0.93;;
7969;SDS011;4030;52.362;9.206;2022-10-16T12:09:58;3.53;;;0.77;;
7969;SDS011;4030;52.362;9.206;2022-10-16T12:13:01;2.35;;;0.70;;
7969;SDS011;4030;52.362;9.206;2022-10-16T12:15:32;1.85;;;0.70;;
7969;SDS011;4030;52.362;9.206;2022-10-16T12:17:59;3.28;;;0.68;;
7969;SDS011;4030;52.362;9.206;2022-10-16T12:20:26;3.90;;;0.85;;
7969;SDS011;4030;52.362;9.206;2022-10-16T12:23:05;4.13;;;0.95;;
7969;SDS011;4030;52.362;9.206;2022-10-16T12:25:39;5.70;;;1.23;;
7969;SDS011;4030;52.362;9.206;2022-10-16T12:28:18;3.10;;;0.85;;
7969;SDS011;4030;52.362;9.206;2022-10-16T12:30:56;2.67;;;1.00;;
7969;SDS011;4030;52.362;9.206;2022-10-16T12:33:35;1.85;;;0.70;;
7969;SDS011;4030;52.362;9.206;2022-10-16T12:36:13;4.20;;;0.80;;
7969;SDS011;4030;52.362;9.206;2022-10-16T12:38:51;1.85;;;0.70;;
7969;SDS011;4030;52.362;9.206;2022-10-16T12:41:31;2.72;;;0.90;;
7969;SDS011;4030;52.362;9.206;2022-10-16T12:43:59;2.53;;;0.70;;
7969;SDS011;4030;52.362;9.206;2022-10-16T12:49:37;1.00;;;0.50;;
7969;SDS011;4030;52.362;9.206;2022-10-16T12:51:54;1.33;;;0.60;;
7969;SDS011;4030;52.362;9.206;2022-10-16T12:54:31;1.35;;;0.60;;
7969;SDS011;4030;52.362;9.206;2022-10-16T13:00:26;2.17;;;0.88;;
7969;SDS011;4030;52.362;9.206;2022-10-16T13:17:37;2.10;;;0.75;;
7969;SDS011;4030;52.362;9.206;2022-10-16T13:20:20;3.05;;;0.60;;
7969;SDS011;4030;52.362;9.206;2022-10-16T13:28:49;2.42;;;0.80;;
7969;SDS011;4030;52.362;9.206;2022-10-16T13:31:17;3.95;;;1.05;;
7969;SDS011;4030;52.362;9.206;2022-10-16T13:33:50;1.02;;;0.60;;
7969;SDS011;4030;52.362;9.206;2022-10-16T13:36:23;2.08;;;0.88;;
7969;SDS011;4030;52.362;9.206;2022-10-16T13:41:43;2.00;;;0.80;;
7969;SDS011;4030;52.362;9.206;2022-10-16T13:44:14;1.60;;;0.80;;
7969;SDS011;4030;52.362;9.206;2022-10-16T13:46:44;2.33;;;1.00;;
7969;SDS011;4030;52.362;9.206;2022-10-16T13:49:12;2.33;;;1.00;;
7969;SDS011;4030;52.362;9.206;2022-10-16T13:51:53;1.10;;;0.70;;
7969;SDS011;4030;52.362;9.206;2022-10-16T13:54:24;2.80;;;0.85;;
7969;SDS011;4030;52.362;9.206;2022-10-16T13:56:53;1.80;;;0.85;;
7969;SDS011;4030;52.362;9.206;2022-10-16T13:59:24;2.60;;;1.00;;
7969;SDS011;4030;52.362;9.206;2022-10-16T14:02:04;1.98;;;0.80;;
7969;SDS011;4030;52.362;9.206;2022-10-16T14:04:43;1.02;;;0.70;;
7969;SDS011;4030;52.362;9.206;2022-10-16T14:07:18;1.92;;;0.98;;
7969;SDS011;4030;52.362;9.206;2022-10-16T14:09:52;1.52;;;0.70;;
7969;SDS011;4030;52.362;9.206;2022-10-16T14:12:19;1.85;;;0.90;;
7969;SDS011;4030;52.362;9.206;2022-10-16T14:14:47;1.50;;;0.70;;
7969;SDS011;4030;52.362;9.206;2022-10-16T14:17:20;1.38;;;0.70;;
7969;SDS011;4030;52.362;9.206;2022-10-16T14:19:51;2.33;;;0.88;;
7969;SDS011;4030;52.362;9.206;2022-10-16T14:22:30;1.52;;;0.63;;
7969;SDS011;4030;52.362;9.206;2022-10-16T14:25:00;1.58;;;0.73;;
7969;SDS011;4030;52.362;9.206;2022-10-16T14:27:40;2.17;;;0.73;;
7969;SDS011;4030;52.362;9.206;2022-10-16T14:30:13;1.85;;;0.85;;
7969;SDS011;4030;52.362;9.206;2022-10-16T14:35:24;1.70;;;0.80;;
7969;SDS011;4030;52.362;9.206;2022-10-16T14:38:04;2.10;;;0.70;;
7969;SDS011;4030;52.362;9.206;2022-10-16T14:40:45;1.73;;;1.02;;
7969;SDS011;4030;52.362;9.206;2022-10-16T14:43:14;1.77;;;0.98;;
7969;SDS011;4030;52.362;9.206;2022-10-16T14:45:54;1.50;;;0.80;;
7969;SDS011;4030;52.362;9.206;2022-10-16T14:48:21;1.55;;;0.80;;
7969;SDS011;4030;52.362;9.206;2022-10-16T14:50:48;2.20;;;0.77;;
7969;SDS011;4030;52.362;9.206;2022-10-16T14:53:13;1.50;;;0.88;;
7969;SDS011;4030;52.362;9.206;2022-10-16T14:55:40;1.60;;;0.70;;
7969;SDS011;4030;52.362;9.206;2022-10-16T14:58:19;1.65;;;0.70;;
7969;SDS011;4030;52.362;9.206;2022-10-16T15:00:47;1.88;;;0.70;;
7969;SDS011;4030;52.362;9.206;2022-10-16T15:03:13;1.85;;;0.77;;
7969;SDS011;4030;52.362;9.206;2022-10-16T15:05:39;1.02;;;0.68;;
7969;SDS011;4030;52.362;9.206;2022-10-16T15:08:05;2.80;;;0.70;;
7969;SDS011;4030;52.362;9.206;2022-10-16T15:10:33;2.60;;;0.80;;
7969;SDS011;4030;52.362;9.206;2022-10-16T15:13:05;2.50;;;0.90;;
7969;SDS011;4030;52.362;9.206;2022-10-16T15:15:39;2.45;;;0.80;;
7969;SDS011;4030;52.362;9.206;2022-10-16T15:18:10;2.20;;;0.90;;
7969;SDS011;4030;52.362;9.206;2022-10-16T15:20:36;0.93;;;0.65;;
7969;SDS011;4030;52.362;9.206;2022-10-16T15:23:05;1.35;;;0.60;;
7969;SDS011;4030;52.362;9.206;2022-10-16T15:25:39;1.60;;;0.80;;
7969;SDS011;4030;52.362;9.206;2022-10-16T15:28:12;1.83;;;0.80;;
7969;SDS011;4030;52.362;9.206;2022-10-16T15:30:39;2.17;;;0.70;;
7969;SDS011;4030;52.362;9.206;2022-10-16T15:33:10;1.90;;;0.93;;
7969;SDS011;4030;52.362;9.206;2022-10-16T15:35:50;1.50;;;0.80;;
7969;SDS011;4030;52.362;9.206;2022-10-16T15:38:17;2.03;;;0.85;;
7969;SDS011;4030;52.362;9.206;2022-10-16T15:40:45;1.63;;;0.90;;
7969;SDS011;4030;52.362;9.206;2022-10-16T15:43:12;1.25;;;0.80;;
7969;SDS011;4030;52.362;9.206;2022-10-16T15:45:38;1.27;;;0.85;;
7969;SDS011;4030;52.362;9.206;2022-10-16T15:48:04;0.77;;;0.75;;
7969;SDS011;4030;52.362;9.206;2022-10-16T15:50:30;1.15;;;0.80;;
7969;SDS011;4030;52.362;9.206;2022-10-16T15:52:57;1.70;;;1.10;;
7969;SDS011;4030;52.362;9.206;2022-10-16T15:55:23;1.25;;;0.90;;
7969;SDS011;4030;52.362;9.206;2022-10-16T15:57:49;1.70;;;1.10;;
7969;SDS011;4030;52.362;9.206;2022-10-16T16:00:16;2.28;;;1.13;;
7969;SDS011;4030;52.362;9.206;2022-10-16T16:02:50;1.90;;;1.10;;
7969;SDS011;4030;52.362;9.206;2022-10-16T16:05:18;2.35;;;1.10;;
7969;SDS011;4030;52.362;9.206;2022-10-16T16:07:45;2.83;;;0.90;;
7969;SDS011;4030;52.362;9.206;2022-10-16T16:10:11;2.63;;;1.00;;
7969;SDS011;4030;52.362;9.206;2022-10-16T16:12:37;1.48;;;1.08;;
7969;SDS011;4030;52.362;9.206;2022-10-16T16:15:04;1.45;;;0.80;;
7969;SDS011;4030;52.362;9.206;2022-10-16T16:17:33;2.65;;;1.10;;
7969;SDS011;4030;52.362;9.206;2022-10-16T16:19:59;2.22;;;1.10;;
7969;SDS011;4030;52.362;9.206;2022-10-16T16:22:25;2.00;;;1.10;;
7969;SDS011;4030;52.362;9.206;2022-10-16T16:24:51;2.25;;;1.08;;
7969;SDS011;4030;52.362;9.206;2022-10-16T16:27:17;2.65;;;1.08;;
7969;SDS011;4030;52.362;9.206;2022-10-16T16:29:44;2.17;;;0.95;;
7969;SDS011;4030;52.362;9.206;2022-10-16T16:32:11;2.00;;;1.20;;
7969;SDS011;4030;52.362;9.206;2022-10-16T16:34:36;2.40;;;1.23;;
7969;SDS011;4030;52.362;9.206;2022-10-16T16:37:02;1.73;;;1.05;;
7969;SDS011;4030;52.362;9.206;2022-10-16T16:39:28;1.67;;;1.27;;
7969;SDS011;4030;52.362;9.206;2022-10-16T16:41:55;1.70;;;1.08;;
7969;SDS011;4030;52.362;9.206;2022-10-16T16:44:23;1.90;;;1.30;;
7969;SDS011;4030;52.362;9.206;2022-10-16T16:46:49;3.10;;;1.17;;
7969;SDS011;4030;52.362;9.206;2022-10-16T16:49:16;2.45;;;1.40;;
7969;SDS011;4030;52.362;9.206;2022-10-16T16:51:42;1.65;;;1.10;;
7969;SDS011;4030;52.362;9.206;2022-10-16T16:54:09;1.80;;;1.10;;
7969;SDS011;4030;52.362;9.206;2022-10-16T16:56:36;2.03;;;1.20;;
7969;SDS011;4030;52.362;9.206;2022-10-16T16:59:02;1.58;;;1.15;;
7969;SDS011;4030;52.362;9.206;2022-10-16T17:01:29;1.10;;;0.90;;
7969;SDS011;4030;52.362;9.206;2022-10-16T17:03:56;2.70;;;1.10;;
7969;SDS011;4030;52.362;9.206;2022-10-16T17:06:24;2.20;;;1.13;;
7969;SDS011;4030;52.362;9.206;2022-10-16T17:08:57;2.45;;;1.38;;
7969;SDS011;4030;52.362;9.206;2022-10-16T17:11:27;1.73;;;1.10;;
7969;SDS011;4030;52.362;9.206;2022-10-16T17:13:54;2.90;;;1.38;;
7969;SDS011;4030;52.362;9.206;2022-10-16T17:16:23;2.28;;;1.42;;
7969;SDS011;4030;52.362;9.206;2022-10-16T17:18:58;2.45;;;1.80;;
7969;SDS011;4030;52.362;9.206;2022-10-16T17:21:29;2.45;;;1.90;;
7969;SDS011;4030;52.362;9.206;2022-10-16T17:23:56;2.35;;;2.00;;